This is the latest recevied weather packets stored in our database for station/object AE6EO. If no packets are shown the sender has not sent any weather packets the latest 10 day(s).
| Time | Temp. | Humidity | Pressure | Rain* | Wind** | Luminosity | Snow |
|---|---|---|---|---|---|---|---|
| 1777712715 | 13.89° C | 84% | 1014.3 hPa | 0 mm | - | - | - |
| 1777707315 | 13.89° C | 84% | 1014.6 hPa | 0 mm | - | - | - |
| 1777704915 | 13.33° C | 85% | 1014.6 hPa | 0 mm | - | - | - |
| 1777701916 | 12.78° C | 86% | 1014.7 hPa | 0 mm | - | - | - |
| 1777694116 | 14.44° C | 79% | 1014.1 hPa | 0 mm | - | - | - |
| 1777690517 | 16.11° C | 72% | 1013.5 hPa | 0 mm | - | - | - |
| 1777688116 | 17.22° C | 69% | 1013.2 hPa | 0 mm | - | - | - |
| 1777685716 | 18.33° C | 72% | 1013.2 hPa | 0 mm | - | - | - |
| 1777681515 | 19.44° C | 66% | 1013.4 hPa | 0 mm | - | - | - |
| 1777679715 | 19.44° C | 66% | 1013.4 hPa | 0 mm | - | - | - |
| 1777679117 | 19.44° C | 65% | 1013.6 hPa | 0 mm | - | - | - |
| 1777677916 | 19.44° C | 65% | 1013.7 hPa | 0 mm | - | - | - |
| 1777676136 | 19.44° C | 68% | 1014.1 hPa | 0 mm | - | - | - |
| 1777666517 | 18.33° C | 71% | 1015.8 hPa | 0 mm | - | - | - |
| 1777662917 | 18.33° C | 70% | 1016.3 hPa | 0 mm | - | - | - |
| 1777662316 | 18.33° C | 69% | 1016.4 hPa | 0 mm | - | - | - |
| 1777660516 | 17.78° C | 71% | 1016.4 hPa | 0 mm | - | - | - |
| 1777658717 | 17.22° C | 72% | 1016.6 hPa | 0 mm | - | - | - |
| 1777658116 | 17.22° C | 71% | 1016.7 hPa | 0 mm | - | - | - |
| 1777654516 | 16.67° C | 70% | 1016.5 hPa | 0 mm | - | - | - |
| 1777653317 | 16.67° C | 72% | 1016.6 hPa | 0 mm | - | - | - |
| 1777651515 | 16.11° C | 73% | 1016.3 hPa | 0 mm | - | - | - |
| 1777647915 | 14.44° C | 78% | 1015.9 hPa | 0 mm | - | - | - |
| 1777646716 | 13.89° C | 82% | 1015.8 hPa | 0 mm | - | - | - |
| 1777644917 | 13.33° C | 83% | 1015.7 hPa | 0 mm | - | - | - |
* Rain latest hour (hover to see other rain measurements)
** Current wind speed in m/s (hover to see current wind gust speed)